createdAt,value
2017-05-07T00:00:31.987Z,13.22
2017-05-07T00:01:12.462Z,13.12
2017-05-07T00:01:52.970Z,13.2
2017-05-07T00:02:34.085Z,13.22
2017-05-07T00:03:14.561Z,13.22
2017-05-07T00:03:55.071Z,13.19
2017-05-07T00:04:35.513Z,13.2
2017-05-07T00:05:16.012Z,13.2
2017-05-07T00:05:56.502Z,13.25
2017-05-07T00:06:36.979Z,13.19
2017-05-07T00:07:17.436Z,13.19
2017-05-07T00:07:57.880Z,13.2
2017-05-07T00:08:38.315Z,13.22
2017-05-07T00:09:18.773Z,13.23
2017-05-07T00:09:59.249Z,13.15
2017-05-07T00:10:39.674Z,13.19
2017-05-07T00:11:20.174Z,13.2
2017-05-07T00:12:00.636Z,13.15
2017-05-07T00:12:41.037Z,13.22
2017-05-07T00:13:21.515Z,13.14
2017-05-07T00:14:01.975Z,13.23
2017-05-07T00:14:42.444Z,13.12
2017-05-07T00:15:22.898Z,13.19
2017-05-07T00:16:03.340Z,13.23
2017-05-07T00:16:44.493Z,13.2
2017-05-07T00:18:37.192Z,13.19
2017-05-07T00:19:18.161Z,13.12
2017-05-07T00:19:58.630Z,13.2
2017-05-07T00:20:39.114Z,13.19
2017-05-07T00:21:19.596Z,13.22
2017-05-07T00:22:00.088Z,13.15
2017-05-07T00:22:40.562Z,13.19
2017-05-07T00:23:21.034Z,13.22
2017-05-07T00:24:01.495Z,13.2
2017-05-07T00:24:41.987Z,13.19
2017-05-07T00:25:22.518Z,13.19
2017-05-07T00:26:02.968Z,13.19
2017-05-07T00:26:43.497Z,13.15
2017-05-07T00:27:23.995Z,13.15
2017-05-07T00:28:04.483Z,13.15
2017-05-07T00:28:45.004Z,13.15
2017-05-07T00:29:25.450Z,13.2
2017-05-07T00:30:05.925Z,13.22
2017-05-07T00:30:46.383Z,13.2
2017-05-07T00:31:26.845Z,13.19
2017-05-07T00:32:07.311Z,13.19
2017-05-07T00:32:47.806Z,13.17
2017-05-07T00:33:28.241Z,13.2
2017-05-07T00:34:08.690Z,13.19
2017-05-07T00:34:49.149Z,13.17
2017-05-07T00:35:29.581Z,13.19
2017-05-07T00:36:10.000Z,13.19
2017-05-07T00:37:57.597Z,13.2
2017-05-07T00:38:37.983Z,13.19
2017-05-07T00:39:18.441Z,13.2
2017-05-07T00:39:58.902Z,13.17
2017-05-07T00:40:39.386Z,13.17
2017-05-07T00:41:19.892Z,13.22
2017-05-07T00:42:00.413Z,13.22
2017-05-07T00:42:40.837Z,13.15
2017-05-07T00:43:21.340Z,13.17
2017-05-07T00:44:01.793Z,13.15
2017-05-07T00:44:42.259Z,13.17
2017-05-07T00:45:22.763Z,13.14
2017-05-07T00:46:03.231Z,13.2
2017-05-07T00:46:43.706Z,13.2
2017-05-07T00:47:24.217Z,13.15
2017-05-07T00:48:04.673Z,13.25
2017-05-07T00:48:45.161Z,13.1
2017-05-07T00:49:25.602Z,13.14
2017-05-07T00:50:06.082Z,13.12
2017-05-07T00:50:46.575Z,13.17
2017-05-07T00:51:27.043Z,13.2
2017-05-07T00:52:07.554Z,13.17
2017-05-07T00:52:47.982Z,13.2
2017-05-07T00:53:28.428Z,13.12
2017-05-07T00:54:08.905Z,13.14
2017-05-07T00:54:49.355Z,13.12
2017-05-07T00:55:29.779Z,13.1
2017-05-07T00:56:10.956Z,13.08
2017-05-07T00:56:51.436Z,13.15
2017-05-07T00:57:32.649Z,13.11
2017-05-07T00:58:13.106Z,13.04
2017-05-07T00:58:53.559Z,13.07
2017-05-07T00:59:34.031Z,13.14
2017-05-07T01:01:31.619Z,13.01
2017-05-07T01:02:12.103Z,13.04
2017-05-07T01:02:52.583Z,13.11
2017-05-07T01:03:33.083Z,13.03
2017-05-07T01:04:13.559Z,13.07
2017-05-07T01:04:54.053Z,13.01
2017-05-07T01:05:34.511Z,13.08
2017-05-07T01:06:15.014Z,13.05
2017-05-07T01:06:55.502Z,13.05
2017-05-07T01:07:35.983Z,13.04
2017-05-07T01:08:16.493Z,13.05
2017-05-07T01:08:56.963Z,13.03
2017-05-07T01:09:37.459Z,13.08
2017-05-07T01:10:17.922Z,13.11
2017-05-07T01:10:58.491Z,13.1
2017-05-07T01:11:38.959Z,13.07
2017-05-07T01:12:19.444Z,13.07
2017-05-07T01:12:59.897Z,13.07
2017-05-07T01:13:40.338Z,13.05
2017-05-07T01:14:20.780Z,13.07
2017-05-07T01:15:01.284Z,13.1
2017-05-07T01:15:42.515Z,13.05
2017-05-07T01:16:22.981Z,13.11
2017-05-07T01:17:03.422Z,13.08
2017-05-07T01:17:43.908Z,13.04
2017-05-07T01:18:24.366Z,13.07
2017-05-07T01:19:04.854Z,13.04
2017-05-07T01:19:45.353Z,13.07
2017-05-07T01:20:25.859Z,13.07
2017-05-07T01:21:06.317Z,13.05
2017-05-07T01:21:46.783Z,13.12
2017-05-07T01:23:34.243Z,13.12
2017-05-07T01:24:14.733Z,13.05
2017-05-07T01:24:55.204Z,13.11
2017-05-07T01:25:35.685Z,13.07
2017-05-07T01:26:16.169Z,13.07
2017-05-07T01:26:56.669Z,13.07
2017-05-07T01:27:37.159Z,13.05
2017-05-07T01:28:17.639Z,12.97
2017-05-07T01:28:58.150Z,13.04
2017-05-07T01:29:38.615Z,13.07
2017-05-07T01:30:19.092Z,13.03
2017-05-07T01:30:59.580Z,13.1
2017-05-07T01:31:40.053Z,13.07
2017-05-07T01:32:20.600Z,13.1
2017-05-07T01:33:01.094Z,13
2017-05-07T01:33:41.566Z,13.05
2017-05-07T01:34:22.044Z,13.07
2017-05-07T01:35:02.534Z,13.1
2017-05-07T01:35:42.991Z,13.12
2017-05-07T01:36:23.446Z,13.05
2017-05-07T01:37:03.910Z,13.04
2017-05-07T01:38:51.424Z,13.01
2017-05-07T01:39:32.790Z,13.05
2017-05-07T01:40:13.239Z,13.1
2017-05-07T01:40:53.795Z,13.11
2017-05-07T01:41:34.229Z,13.1
2017-05-07T01:42:15.438Z,13.03
2017-05-07T01:42:55.880Z,13.07
2017-05-07T01:43:36.343Z,13
2017-05-07T01:44:17.605Z,13.01
2017-05-07T01:44:58.035Z,13.07
2017-05-07T01:45:38.548Z,13.1
2017-05-07T01:46:18.999Z,13.08
2017-05-07T01:46:59.463Z,13.04
2017-05-07T01:48:52.013Z,13.1
2017-05-07T01:49:32.444Z,13.05
2017-05-07T01:50:12.889Z,12.97
2017-05-07T01:50:53.349Z,13.05
2017-05-07T01:51:33.831Z,13.12
2017-05-07T01:52:14.310Z,13.07
2017-05-07T01:52:54.809Z,13.07
2017-05-07T01:53:35.870Z,13.07
2017-05-07T01:54:16.361Z,13.04
2017-05-07T01:54:56.811Z,13.03
2017-05-07T01:55:37.288Z,13.08
2017-05-07T01:56:17.718Z,13.07
2017-05-07T01:56:58.178Z,13.07
2017-05-07T01:57:38.650Z,13.04
2017-05-07T01:58:19.773Z,13.01
2017-05-07T01:59:00.232Z,13.05
2017-05-07T02:00:52.786Z,13.01
2017-05-07T02:01:33.263Z,13.05
2017-05-07T02:02:13.756Z,13.04
2017-05-07T02:02:54.215Z,12.97
2017-05-07T02:03:34.739Z,13.15
2017-05-07T02:05:47.472Z,13.1
2017-05-07T02:06:27.933Z,13.05
2017-05-07T02:07:08.414Z,13.05
2017-05-07T02:07:49.861Z,13.12
2017-05-07T02:08:30.339Z,13.12
2017-05-07T02:09:10.816Z,13.05
2017-05-07T02:09:51.301Z,13
2017-05-07T02:10:31.792Z,13.03
2017-05-07T02:11:13.134Z,13.07
2017-05-07T02:11:53.589Z,12.96
2017-05-07T02:12:34.100Z,13.03
2017-05-07T02:13:14.564Z,13.01
2017-05-07T02:13:55.023Z,13.03
2017-05-07T02:14:35.481Z,13.01
2017-05-07T02:15:15.930Z,13.12
2017-05-07T02:15:56.404Z,13.07
2017-05-07T02:16:36.890Z,13.05
2017-05-07T02:17:17.321Z,13.04
2017-05-07T02:17:57.775Z,13.05
2017-05-07T02:18:38.222Z,12.97
2017-05-07T02:19:18.689Z,12.95
2017-05-07T02:19:59.191Z,12.96
2017-05-07T02:20:39.603Z,13
2017-05-07T02:21:20.064Z,12.95
2017-05-07T02:22:00.520Z,13.04
2017-05-07T02:22:40.985Z,12.9
2017-05-07T02:23:21.440Z,12.95
2017-05-07T02:24:01.900Z,12.93
2017-05-07T02:24:42.363Z,12.89
2017-05-07T02:25:22.802Z,12.95
2017-05-07T02:26:03.272Z,12.85
2017-05-07T02:26:43.721Z,13.01
2017-05-07T02:27:24.233Z,12.86
2017-05-07T02:28:04.688Z,12.92
2017-05-07T02:30:17.647Z,12.96
2017-05-07T02:30:58.092Z,12.93
2017-05-07T02:31:38.534Z,12.95
2017-05-07T02:32:19.026Z,12.93
2017-05-07T02:32:59.519Z,13.03
2017-05-07T02:33:39.978Z,12.95
2017-05-07T02:35:52.676Z,12.93
2017-05-07T02:36:33.721Z,12.85
2017-05-07T02:37:14.210Z,12.96
2017-05-07T02:37:54.704Z,12.86
2017-05-07T02:38:35.182Z,13.03
2017-05-07T02:39:15.636Z,12.93
2017-05-07T02:39:56.142Z,12.96
2017-05-07T02:40:36.661Z,12.93
2017-05-07T02:41:17.108Z,12.86
2017-05-07T02:43:09.633Z,12.93
2017-05-07T02:43:50.158Z,12.87
2017-05-07T02:44:30.617Z,12.96
2017-05-07T02:45:11.094Z,12.96
2017-05-07T02:45:51.540Z,12.9
2017-05-07T02:46:32.017Z,12.93
2017-05-07T02:47:12.463Z,12.93
2017-05-07T02:47:52.913Z,12.87
2017-05-07T02:48:33.404Z,12.85
2017-05-07T02:49:13.851Z,12.93
2017-05-07T02:49:54.353Z,12.89
2017-05-07T02:50:35.573Z,12.87
2017-05-07T02:51:16.027Z,12.85
2017-05-07T02:51:56.473Z,12.9
2017-05-07T02:52:36.913Z,12.9
2017-05-07T02:53:17.355Z,12.96
2017-05-07T02:53:57.814Z,12.96
2017-05-07T02:54:38.322Z,12.95
2017-05-07T02:55:18.803Z,12.97
2017-05-07T02:55:59.235Z,12.9
2017-05-07T02:56:39.678Z,12.9
2017-05-07T02:57:20.142Z,12.87
2017-05-07T02:58:00.595Z,12.83
2017-05-07T02:58:41.704Z,12.87
2017-05-07T02:59:22.140Z,12.85
2017-05-07T03:00:02.583Z,12.77
2017-05-07T03:00:43.050Z,12.85
2017-05-07T03:02:55.791Z,12.83
2017-05-07T03:03:36.294Z,12.85
2017-05-07T03:04:16.778Z,12.85
2017-05-07T03:06:29.492Z,12.83
2017-05-07T03:07:09.974Z,12.78
2017-05-07T03:07:50.489Z,12.83
2017-05-07T03:08:30.934Z,12.79
2017-05-07T03:09:11.395Z,12.75
2017-05-07T03:09:51.903Z,12.77
2017-05-07T03:10:32.368Z,12.82
2017-05-07T03:11:12.822Z,12.78
2017-05-07T03:11:53.312Z,12.82
2017-05-07T03:12:33.740Z,12.79
2017-05-07T03:13:14.208Z,12.77
2017-05-07T03:13:54.628Z,12.83
2017-05-07T03:14:35.069Z,12.78
2017-05-07T03:15:15.516Z,12.75
2017-05-07T03:15:55.973Z,12.78
2017-05-07T03:16:36.413Z,12.72
2017-05-07T03:17:16.865Z,12.79
2017-05-07T03:17:57.333Z,12.83
2017-05-07T03:18:37.778Z,12.82
2017-05-07T03:19:18.239Z,12.79
2017-05-07T03:19:58.716Z,12.75
2017-05-07T03:20:39.171Z,12.75
2017-05-07T03:21:19.598Z,12.75
2017-05-07T03:22:00.054Z,12.77
2017-05-07T03:22:40.496Z,12.75
2017-05-07T03:23:20.950Z,12.77
2017-05-07T03:24:01.449Z,12.82
2017-05-07T03:25:54.001Z,12.86
2017-05-07T03:26:34.453Z,12.85
2017-05-07T03:27:14.912Z,12.79
2017-05-07T03:27:55.371Z,12.75
2017-05-07T03:28:35.838Z,12.72
2017-05-07T03:29:17.275Z,12.75
2017-05-07T03:29:57.782Z,12.72
2017-05-07T03:30:38.221Z,12.79
2017-05-07T03:31:18.684Z,12.79
2017-05-07T03:31:59.122Z,12.79
2017-05-07T03:32:39.613Z,12.78
2017-05-07T03:33:20.059Z,12.78
2017-05-07T03:34:00.485Z,12.75
2017-05-07T03:34:40.959Z,12.78
2017-05-07T03:35:21.428Z,12.78
2017-05-07T03:36:01.888Z,12.79
2017-05-07T03:36:42.367Z,12.78
2017-05-07T03:37:22.812Z,12.78
2017-05-07T03:38:03.246Z,12.78
2017-05-07T03:38:44.267Z,12.78
2017-05-07T03:39:24.709Z,12.85
2017-05-07T03:40:05.157Z,12.77
2017-05-07T03:40:45.610Z,12.77
2017-05-07T03:41:26.081Z,12.77
2017-05-07T03:42:06.508Z,12.78
2017-05-07T03:42:46.987Z,12.74
2017-05-07T03:43:27.455Z,12.79
2017-05-07T03:44:07.908Z,12.78
2017-05-07T03:44:49.267Z,12.68
2017-05-07T03:45:29.756Z,12.77
2017-05-07T03:46:10.221Z,12.78
2017-05-07T03:46:50.678Z,12.83
2017-05-07T03:47:31.158Z,12.83
2017-05-07T03:48:11.599Z,12.82
2017-05-07T03:48:52.057Z,12.78
2017-05-07T03:49:32.508Z,12.86
2017-05-07T03:50:12.932Z,12.85
2017-05-07T03:50:53.398Z,12.74
2017-05-07T03:51:33.900Z,12.79
2017-05-07T03:52:14.327Z,12.85
2017-05-07T03:52:54.797Z,12.79
2017-05-07T03:53:35.849Z,12.75
2017-05-07T03:54:16.329Z,12.79
2017-05-07T03:56:09.013Z,12.85
2017-05-07T03:57:56.465Z,12.79
2017-05-07T03:58:36.960Z,12.87
2017-05-07T03:59:17.438Z,12.78
2017-05-07T03:59:57.949Z,12.79
2017-05-07T04:00:38.450Z,12.79
2017-05-07T04:01:18.981Z,12.77
2017-05-07T04:01:59.426Z,12.78
2017-05-07T04:02:39.938Z,12.85
2017-05-07T04:03:20.409Z,12.77
2017-05-07T04:04:00.897Z,12.79
2017-05-07T04:04:41.345Z,12.79
2017-05-07T04:05:21.812Z,12.83
2017-05-07T04:06:02.319Z,12.78
2017-05-07T04:06:42.779Z,12.78
2017-05-07T04:07:23.233Z,12.74
2017-05-07T04:08:03.705Z,12.74
2017-05-07T04:08:44.150Z,12.75
2017-05-07T04:09:24.619Z,12.77
2017-05-07T04:10:05.086Z,12.79
2017-05-07T04:10:45.539Z,12.75
2017-05-07T04:11:25.983Z,12.82
2017-05-07T04:12:06.424Z,12.77
2017-05-07T04:12:46.870Z,12.79
2017-05-07T04:13:27.282Z,12.75
2017-05-07T04:14:07.735Z,12.7
2017-05-07T04:14:48.184Z,12.78
2017-05-07T04:15:28.618Z,12.75
2017-05-07T04:16:09.081Z,12.77
2017-05-07T04:16:49.527Z,12.78
2017-05-07T04:17:30.011Z,12.75
2017-05-07T04:18:10.451Z,12.79
2017-05-07T04:18:50.913Z,12.79
2017-05-07T04:19:31.345Z,12.75
2017-05-07T04:20:11.799Z,12.75
2017-05-07T04:20:52.248Z,12.75
2017-05-07T04:21:32.680Z,12.79
2017-05-07T04:22:13.169Z,12.79
2017-05-07T04:22:53.789Z,12.74
2017-05-07T04:23:34.275Z,12.72
2017-05-07T04:24:14.697Z,12.75
2017-05-07T04:24:55.158Z,12.68
2017-05-07T04:25:35.588Z,12.77
2017-05-07T04:26:16.077Z,12.82
2017-05-07T04:26:56.527Z,12.79
2017-05-07T04:27:36.987Z,12.83
2017-05-07T04:28:17.425Z,12.85
2017-05-07T04:28:57.883Z,12.77
2017-05-07T04:29:38.339Z,12.79
2017-05-07T04:30:18.818Z,12.79
2017-05-07T04:32:11.401Z,12.89
2017-05-07T04:32:51.824Z,12.79
2017-05-07T04:34:44.345Z,12.82
2017-05-07T04:35:24.825Z,12.85
2017-05-07T04:36:05.308Z,12.78
2017-05-07T04:36:45.775Z,12.78
2017-05-07T04:37:26.251Z,12.86
2017-05-07T04:38:06.696Z,12.9
2017-05-07T04:38:47.216Z,12.75
2017-05-07T04:39:27.694Z,12.78
2017-05-07T04:40:08.144Z,12.89
2017-05-07T04:40:48.564Z,12.83
2017-05-07T04:41:28.995Z,12.75
2017-05-07T04:42:09.451Z,12.79
2017-05-07T04:44:02.233Z,12.79
2017-05-07T04:44:42.714Z,12.71
2017-05-07T04:45:23.188Z,12.75
2017-05-07T04:46:03.667Z,12.79
2017-05-07T04:46:44.156Z,12.77
2017-05-07T04:47:24.664Z,12.79
2017-05-07T04:49:37.465Z,12.72
2017-05-07T04:50:17.960Z,12.78
2017-05-07T04:50:58.434Z,12.79
2017-05-07T04:51:38.918Z,12.7
2017-05-07T04:52:19.371Z,12.72
2017-05-07T04:52:59.977Z,12.75
2017-05-07T04:53:40.409Z,12.78
2017-05-07T04:54:20.812Z,12.75
2017-05-07T04:55:01.276Z,12.77
2017-05-07T04:55:41.713Z,12.74
2017-05-07T04:56:22.146Z,12.77
2017-05-07T04:57:02.585Z,12.77
2017-05-07T04:57:43.053Z,12.77
2017-05-07T04:58:23.510Z,12.74
2017-05-07T04:59:03.954Z,12.79
2017-05-07T04:59:44.413Z,12.77
2017-05-07T05:00:24.874Z,12.77
2017-05-07T05:01:05.333Z,12.79
2017-05-07T05:01:45.809Z,12.75
2017-05-07T05:02:27.006Z,12.7
2017-05-07T05:03:07.479Z,12.75
2017-05-07T05:03:47.904Z,12.79
2017-05-07T05:05:45.520Z,12.79
2017-05-07T05:06:26.014Z,12.78
2017-05-07T05:07:06.498Z,12.74
2017-05-07T05:07:46.981Z,12.75
2017-05-07T05:08:28.311Z,12.79
2017-05-07T05:09:08.797Z,12.79
2017-05-07T05:09:49.297Z,12.79
2017-05-07T05:10:29.791Z,12.78
2017-05-07T05:11:10.270Z,12.89
2017-05-07T05:11:51.305Z,12.92
2017-05-07T05:12:31.800Z,12.89
2017-05-07T05:13:12.276Z,12.9
2017-05-07T05:13:52.779Z,12.9
2017-05-07T05:14:33.259Z,12.96
2017-05-07T05:15:14.412Z,12.93
2017-05-07T05:15:54.958Z,12.9
2017-05-07T05:16:35.430Z,12.9
2017-05-07T05:18:27.988Z,12.85
2017-05-07T05:19:08.468Z,12.85
2017-05-07T05:21:01.063Z,12.87
2017-05-07T05:21:41.528Z,12.93
2017-05-07T05:22:22.028Z,12.83
2017-05-07T05:23:02.497Z,12.89
2017-05-07T05:23:43.042Z,12.89
2017-05-07T05:24:23.515Z,12.9
2017-05-07T05:25:04.047Z,12.9
2017-05-07T05:25:44.523Z,12.9
2017-05-07T05:26:25.108Z,12.85
2017-05-07T05:27:05.592Z,12.85
2017-05-07T05:27:46.053Z,12.83
2017-05-07T05:28:26.533Z,12.77
2017-05-07T05:29:07.015Z,12.78
2017-05-07T05:29:47.452Z,12.82
2017-05-07T05:30:27.893Z,12.82
2017-05-07T05:31:08.372Z,12.86
2017-05-07T05:31:48.776Z,12.78
2017-05-07T05:32:29.220Z,12.83
2017-05-07T05:33:09.698Z,12.78
2017-05-07T05:33:50.132Z,12.79
2017-05-07T05:34:30.590Z,12.78
2017-05-07T05:35:11.067Z,12.77
2017-05-07T05:35:51.545Z,12.74
2017-05-07T05:36:31.980Z,12.78
2017-05-07T05:37:12.455Z,12.77
2017-05-07T05:37:52.933Z,12.78
2017-05-07T05:38:33.411Z,12.86
2017-05-07T05:39:13.869Z,12.85
2017-05-07T05:39:54.304Z,12.85
2017-05-07T05:40:34.796Z,12.83
2017-05-07T05:41:15.299Z,12.9
2017-05-07T05:41:55.788Z,12.86
2017-05-07T05:42:36.247Z,12.92
2017-05-07T05:43:16.717Z,12.87
2017-05-07T05:43:57.144Z,12.9
2017-05-07T05:44:37.596Z,12.95
2017-05-07T05:45:18.045Z,12.97
2017-05-07T05:47:30.757Z,13.05
2017-05-07T05:48:11.213Z,13.03
2017-05-07T05:48:51.696Z,13.05
2017-05-07T05:49:32.193Z,13.03
2017-05-07T05:50:12.657Z,13.1
2017-05-07T05:50:53.111Z,13.04
2017-05-07T05:51:34.175Z,13.08
2017-05-07T05:52:14.588Z,13.1
2017-05-07T05:52:55.033Z,13.19
2017-05-07T05:54:32.408Z,13.14
2017-05-07T05:55:12.925Z,13.17
2017-05-07T05:55:53.391Z,13.22
2017-05-07T05:57:40.836Z,13.17
2017-05-07T05:58:21.307Z,13.19
2017-05-07T05:59:01.780Z,13.2
2017-05-07T05:59:42.253Z,13.19
2017-05-07T06:00:22.749Z,13.25
2017-05-07T06:01:03.226Z,13.23
2017-05-07T06:01:43.666Z,13.19
2017-05-07T06:02:24.126Z,13.15
2017-05-07T06:03:04.615Z,13.23
2017-05-07T06:03:45.095Z,13.25
2017-05-07T06:04:25.514Z,13.32
2017-05-07T06:05:05.988Z,13.29
2017-05-07T06:05:46.475Z,13.25
2017-05-07T06:06:27.479Z,13.26
2017-05-07T06:07:07.917Z,13.25
2017-05-07T06:07:48.344Z,13.38
2017-05-07T06:08:28.772Z,13.3
2017-05-07T06:09:09.222Z,13.33
2017-05-07T06:09:49.670Z,13.26
2017-05-07T06:10:30.175Z,13.3
2017-05-07T06:11:10.606Z,13.28
2017-05-07T06:11:51.046Z,13.3
2017-05-07T06:12:31.558Z,13.36
2017-05-07T06:13:11.914Z,13.26
2017-05-07T06:13:52.352Z,13.36
2017-05-07T06:14:32.808Z,13.39
2017-05-07T06:15:13.269Z,13.33
2017-05-07T06:15:53.748Z,13.44
2017-05-07T06:16:34.196Z,13.32
2017-05-07T06:17:14.646Z,13.33
2017-05-07T06:17:55.116Z,13.36
2017-05-07T06:18:35.571Z,13.36
2017-05-07T06:19:16.034Z,13.36
2017-05-07T06:19:56.480Z,13.39
2017-05-07T06:21:33.837Z,13.46
2017-05-07T06:22:14.322Z,13.42
2017-05-07T06:22:54.810Z,13.45
2017-05-07T06:23:35.323Z,13.44
2017-05-07T06:24:15.785Z,13.45
2017-05-07T06:24:56.278Z,13.49
2017-05-07T06:25:36.755Z,13.46
2017-05-07T06:26:17.236Z,13.49
2017-05-07T06:26:57.680Z,13.42
2017-05-07T06:27:38.109Z,13.45
2017-05-07T06:28:18.585Z,13.54
2017-05-07T06:28:59.065Z,13.45
2017-05-07T06:29:39.562Z,13.45
2017-05-07T06:30:20.299Z,13.39
2017-05-07T06:31:01.294Z,13.29
2017-05-07T06:31:41.871Z,13.41
2017-05-07T06:32:22.641Z,13.38
2017-05-07T06:33:03.534Z,13.38
2017-05-07T06:33:44.445Z,13.32
2017-05-07T06:34:25.323Z,13.42
2017-05-07T06:35:05.888Z,13.42
2017-05-07T06:35:47.035Z,13.48
2017-05-07T06:36:27.635Z,13.49
2017-05-07T06:37:08.047Z,13.49
2017-05-07T06:37:48.480Z,13.38
2017-05-07T06:38:28.920Z,13.44
2017-05-07T06:39:09.343Z,13.36
2017-05-07T06:39:49.805Z,13.44
2017-05-07T06:40:30.233Z,13.46
2017-05-07T06:41:10.692Z,13.42
2017-05-07T06:41:51.127Z,13.52
2017-05-07T06:42:31.560Z,13.32
2017-05-07T06:43:12.014Z,13.44
2017-05-07T06:43:52.423Z,13.51
2017-05-07T06:44:32.891Z,13.46
2017-05-07T06:45:13.368Z,13.49
2017-05-07T06:45:53.815Z,13.51
2017-05-07T06:46:34.382Z,13.46
2017-05-07T06:47:14.840Z,13.49
2017-05-07T06:47:55.325Z,13.42
2017-05-07T06:48:35.776Z,13.46
2017-05-07T06:49:16.214Z,13.42
2017-05-07T06:49:56.704Z,13.48
2017-05-07T06:50:37.139Z,13.51
2017-05-07T06:51:17.616Z,13.57
2017-05-07T06:51:58.092Z,13.46
2017-05-07T06:52:38.553Z,13.45
2017-05-07T06:53:18.987Z,13.49
2017-05-07T06:53:59.421Z,13.63
2017-05-07T06:54:39.865Z,13.57
2017-05-07T06:55:20.303Z,13.48
2017-05-07T06:56:00.756Z,13.52
2017-05-07T06:56:41.222Z,13.48
2017-05-07T06:57:21.659Z,13.49
2017-05-07T06:58:02.094Z,13.48
2017-05-07T06:58:42.529Z,13.46
2017-05-07T06:59:23.015Z,13.48
2017-05-07T07:00:03.473Z,13.52
2017-05-07T07:00:43.903Z,13.49
2017-05-07T07:01:24.374Z,13.46
2017-05-07T07:02:04.825Z,13.48
2017-05-07T07:02:45.267Z,13.51
2017-05-07T07:03:25.746Z,13.54
2017-05-07T07:04:06.200Z,13.51
2017-05-07T07:04:47.233Z,13.48
2017-05-07T07:05:27.676Z,13.38
2017-05-07T07:06:08.118Z,13.49
2017-05-07T07:06:48.567Z,13.52
2017-05-07T07:07:29.831Z,13.48
2017-05-07T07:08:10.272Z,13.44
2017-05-07T07:08:50.702Z,13.44
2017-05-07T07:09:31.154Z,13.45
2017-05-07T07:10:11.594Z,13.41
2017-05-07T07:10:52.063Z,13.48
2017-05-07T07:11:32.473Z,13.39
2017-05-07T07:12:12.898Z,13.44
2017-05-07T07:12:53.347Z,13.45
2017-05-07T07:13:33.861Z,13.44
2017-05-07T07:14:14.428Z,13.42
2017-05-07T07:14:54.881Z,13.36
2017-05-07T07:15:35.338Z,13.44
2017-05-07T07:16:15.802Z,13.36
2017-05-07T07:16:56.259Z,13.48
2017-05-07T07:17:36.720Z,13.49
2017-05-07T07:18:17.169Z,13.48
2017-05-07T07:18:58.329Z,13.46
2017-05-07T07:19:38.715Z,13.41
2017-05-07T07:20:19.187Z,13.42
2017-05-07T07:20:59.656Z,13.48
2017-05-07T07:21:40.105Z,13.49
2017-05-07T07:22:20.549Z,13.39
2017-05-07T07:23:01.009Z,13.32
2017-05-07T07:23:41.449Z,13.42
2017-05-07T07:24:21.898Z,13.45
2017-05-07T07:25:02.312Z,13.41
2017-05-07T07:25:42.763Z,13.46
2017-05-07T07:26:23.206Z,13.46
2017-05-07T07:27:03.668Z,13.55
2017-05-07T07:27:44.094Z,13.52
2017-05-07T07:28:24.534Z,13.52
2017-05-07T07:29:04.996Z,13.49
2017-05-07T07:29:45.502Z,13.54
2017-05-07T07:30:25.910Z,13.48
2017-05-07T07:31:06.347Z,13.46
2017-05-07T07:31:46.795Z,13.46
2017-05-07T07:32:27.232Z,13.48
2017-05-07T07:33:07.689Z,13.51
2017-05-07T07:33:48.141Z,13.45
2017-05-07T07:34:28.610Z,13.48
2017-05-07T07:35:08.976Z,13.44
2017-05-07T07:35:49.392Z,13.41
2017-05-07T07:36:29.831Z,13.49
2017-05-07T07:37:10.287Z,13.48
2017-05-07T07:37:50.711Z,13.45
2017-05-07T07:38:31.153Z,13.52
2017-05-07T07:39:11.570Z,13.57
2017-05-07T07:39:52.015Z,13.59
2017-05-07T07:40:32.475Z,13.52
2017-05-07T07:41:12.933Z,13.55
2017-05-07T07:41:53.399Z,13.54
2017-05-07T07:42:33.865Z,13.67
2017-05-07T07:43:14.316Z,13.67
2017-05-07T07:43:54.750Z,13.67
2017-05-07T07:44:35.216Z,13.63
2017-05-07T07:45:15.682Z,13.66
2017-05-07T07:45:57.636Z,13.67
2017-05-07T07:46:38.079Z,13.7
2017-05-07T07:47:18.503Z,13.71
2017-05-07T07:47:58.948Z,13.73
2017-05-07T07:48:40.034Z,13.64
2017-05-07T07:49:20.443Z,13.63
2017-05-07T07:50:00.900Z,13.66
2017-05-07T07:50:41.335Z,13.67
2017-05-07T07:51:21.759Z,13.59
2017-05-07T07:52:02.184Z,13.64
2017-05-07T07:52:42.673Z,13.66
2017-05-07T07:53:23.130Z,13.66
2017-05-07T07:54:03.570Z,13.59
2017-05-07T07:54:44.098Z,13.62
2017-05-07T07:55:24.508Z,13.6
2017-05-07T07:56:04.959Z,13.6
2017-05-07T07:56:45.401Z,13.54
2017-05-07T07:57:25.841Z,13.64
2017-05-07T07:58:06.327Z,13.55
2017-05-07T07:58:46.779Z,13.6
2017-05-07T07:59:27.235Z,13.57
2017-05-07T08:00:07.720Z,13.57
2017-05-07T08:00:48.180Z,13.54
2017-05-07T08:01:28.624Z,13.46
2017-05-07T08:02:09.082Z,13.45
2017-05-07T08:02:49.541Z,13.63
2017-05-07T08:03:30.510Z,13.51
2017-05-07T08:04:10.971Z,13.46
2017-05-07T08:04:51.417Z,13.48
2017-05-07T08:05:31.865Z,13.48
2017-05-07T08:06:12.307Z,13.54
2017-05-07T08:06:52.760Z,13.59
2017-05-07T08:07:33.247Z,13.55
2017-05-07T08:08:13.645Z,13.59
2017-05-07T08:08:54.078Z,13.64
2017-05-07T08:09:34.542Z,13.55
2017-05-07T08:10:14.985Z,13.59
2017-05-07T08:10:55.707Z,13.66
2017-05-07T08:11:36.134Z,13.51
2017-05-07T08:12:16.606Z,13.59
2017-05-07T08:12:57.072Z,13.62
2017-05-07T08:13:37.538Z,13.63
2017-05-07T08:14:17.986Z,13.6
2017-05-07T08:14:58.451Z,13.64
2017-05-07T08:15:38.905Z,13.66
2017-05-07T08:16:19.373Z,13.67
2017-05-07T08:16:59.824Z,13.66
2017-05-07T08:17:40.298Z,13.73
2017-05-07T08:18:20.795Z,13.79
2017-05-07T08:19:01.248Z,13.78
2017-05-07T08:19:41.717Z,13.81
2017-05-07T08:20:22.172Z,13.82
2017-05-07T08:21:02.630Z,13.77
2017-05-07T08:21:43.089Z,13.66
2017-05-07T08:22:23.535Z,13.64
2017-05-07T08:23:05.741Z,13.67
2017-05-07T08:23:46.166Z,13.69
2017-05-07T08:24:26.713Z,13.67
2017-05-07T08:25:07.187Z,13.69
2017-05-07T08:25:47.626Z,13.7
2017-05-07T08:26:28.083Z,13.66
2017-05-07T08:27:08.516Z,13.66
2017-05-07T08:27:48.968Z,13.63
2017-05-07T08:28:29.418Z,13.81
2017-05-07T08:29:09.860Z,13.77
2017-05-07T08:29:50.297Z,13.79
2017-05-07T08:30:30.778Z,13.73
2017-05-07T08:31:12.164Z,13.78
2017-05-07T08:31:52.621Z,13.77
2017-05-07T08:32:33.092Z,13.81
2017-05-07T08:33:13.543Z,13.67
2017-05-07T08:33:53.990Z,13.7
2017-05-07T08:34:34.429Z,13.77
2017-05-07T08:35:14.910Z,13.78
2017-05-07T08:35:55.364Z,13.82
2017-05-07T08:36:35.829Z,13.82
2017-05-07T08:37:16.258Z,13.81
2017-05-07T08:37:56.749Z,13.78
2017-05-07T08:39:54.346Z,13.82
2017-05-07T08:40:34.915Z,13.87
2017-05-07T08:41:15.353Z,13.89
2017-05-07T08:41:55.832Z,13.87
2017-05-07T08:42:36.319Z,13.73
2017-05-07T08:43:16.815Z,13.84
2017-05-07T08:43:57.260Z,13.7
2017-05-07T08:45:49.992Z,13.95
2017-05-07T08:46:30.325Z,13.89
2017-05-07T08:47:10.776Z,13.88
2017-05-07T08:47:51.275Z,13.91
2017-05-07T08:48:31.781Z,13.89
2017-05-07T08:49:12.250Z,13.89
2017-05-07T08:49:52.790Z,13.99
2017-05-07T08:50:33.231Z,14.03
2017-05-07T08:51:13.723Z,14.02
2017-05-07T08:51:54.194Z,13.92
2017-05-07T08:52:34.733Z,14.12
2017-05-07T08:53:15.194Z,14.07
2017-05-07T08:53:55.675Z,13.97
2017-05-07T08:54:36.164Z,13.89
2017-05-07T08:55:16.712Z,13.91
2017-05-07T08:55:57.155Z,13.89
2017-05-07T08:56:37.617Z,13.95
2017-05-07T08:57:18.092Z,13.88
2017-05-07T08:57:58.557Z,13.89
2017-05-07T08:58:39.055Z,13.89
2017-05-07T08:59:19.581Z,14.02
2017-05-07T09:00:00.031Z,13.97
2017-05-07T09:00:40.447Z,14.03
2017-05-07T09:02:38.145Z,13.99
2017-05-07T09:03:18.556Z,14
2017-05-07T09:03:59.053Z,13.95
2017-05-07T09:04:39.543Z,13.92
2017-05-07T09:05:20.060Z,13.79
2017-05-07T09:06:00.634Z,13.81
2017-05-07T09:06:41.076Z,13.85
2017-05-07T09:07:21.551Z,13.81
2017-05-07T09:08:02.088Z,13.89
2017-05-07T09:09:49.706Z,13.92
2017-05-07T09:10:30.173Z,13.91
2017-05-07T09:11:10.710Z,13.89
2017-05-07T09:11:51.169Z,13.91
2017-05-07T09:12:31.655Z,13.79
2017-05-07T09:13:12.125Z,13.89
2017-05-07T09:13:52.597Z,13.89
2017-05-07T09:14:33.087Z,14.03
2017-05-07T09:15:13.564Z,13.88
2017-05-07T09:15:54.071Z,13.99
2017-05-07T09:16:34.552Z,14.15
2017-05-07T09:17:15.047Z,14.14
2017-05-07T09:17:55.547Z,14.1
2017-05-07T09:18:36.056Z,14.17
2017-05-07T09:19:16.529Z,14.15
2017-05-07T09:19:56.992Z,14.12
2017-05-07T09:20:37.479Z,14.33
2017-05-07T09:21:17.950Z,14.35
2017-05-07T09:21:58.370Z,14.29
2017-05-07T09:22:38.826Z,14.18